createdAt,value
2023-01-13T00:00:27.574Z,99812.56
2023-01-13T00:01:30.985Z,99803.94
2023-01-13T00:02:33.861Z,99805.59
2023-01-13T00:03:45.765Z,99806.16
2023-01-13T00:04:47.726Z,99794.38
2023-01-13T00:05:49.843Z,99797.16
2023-01-13T00:06:52.126Z,99803.31
2023-01-13T00:07:54.166Z,99800.81
2023-01-13T00:08:57.945Z,99785.16
2023-01-13T00:10:00.311Z,99797.75
2023-01-13T00:11:01.984Z,99800.56
2023-01-13T00:12:04.336Z,99803.34
2023-01-13T00:13:06.429Z,99803.66
2023-01-13T00:14:08.147Z,99796.69
2023-01-13T00:15:10.132Z,99788.31
2023-01-13T00:16:12.560Z,99787.75
2023-01-13T00:17:14.635Z,99791.63
2023-01-13T00:18:16.674Z,99795.50
2023-01-13T00:19:18.381Z,99788.50
2023-01-13T00:20:20.176Z,99777.91
2023-01-13T00:21:23.383Z,99788.25
2023-01-13T00:22:24.947Z,99783.81
2023-01-13T00:23:29.275Z,99779.06
2023-01-13T00:24:31.123Z,99791.34
2023-01-13T00:25:33.044Z,99787.16
2023-01-13T00:26:36.084Z,99794.19
2023-01-13T00:27:38.323Z,99781.88
2023-01-13T00:28:41.646Z,99772.94
2023-01-13T00:29:44.619Z,99776.22
2023-01-13T00:30:48.586Z,99772.31
2023-01-13T00:31:50.454Z,99775.97
2023-01-13T00:32:54.026Z,99778.78
2023-01-13T00:34:07.116Z,99777.34
2023-01-13T00:35:09.034Z,99777.06
2023-01-13T00:36:14.168Z,99773.72
2023-01-13T00:37:18.088Z,99773.97
2023-01-13T00:38:20.915Z,99765.03
2023-01-13T00:39:25.771Z,99766.13
2023-01-13T00:40:36.383Z,99776.78
2023-01-13T00:41:59.449Z,99755.84
2023-01-13T00:44:39.110Z,99764.69
2023-01-13T00:45:40.974Z,99770.53
2023-01-13T00:46:48.697Z,99765.00
2023-01-13T00:47:54.584Z,99766.38
2023-01-13T00:48:57.668Z,99763.56
2023-01-13T00:49:59.400Z,99770.25
2023-01-13T00:51:25.349Z,99763.56
2023-01-13T00:52:31.421Z,99774.22
2023-01-13T00:53:36.689Z,99749.63
2023-01-13T00:54:38.779Z,99765.03
2023-01-13T00:55:40.862Z,99753.03
2023-01-13T00:56:45.473Z,99757.53
2023-01-13T00:57:47.642Z,99757.50
2023-01-13T00:58:49.403Z,99756.38
2023-01-13T00:59:51.532Z,99751.31
2023-01-13T01:00:53.753Z,99750.19
2023-01-13T01:01:56.527Z,99750.44
2023-01-13T01:02:58.723Z,99745.97
2023-01-13T01:04:00.435Z,99750.13
2023-01-13T01:05:04.118Z,99741.25
2023-01-13T01:06:09.405Z,99739.53
2023-01-13T01:07:11.983Z,99747.88
2023-01-13T01:08:15.164Z,99752.38
2023-01-13T01:09:17.244Z,99745.66
2023-01-13T01:10:20.645Z,99735.66
2023-01-13T01:11:25.273Z,99746.03
2023-01-13T01:12:27.680Z,99751.31
2023-01-13T01:13:37.348Z,99743.53
2023-01-13T01:14:39.117Z,99751.91
2023-01-13T01:15:41.294Z,99744.03
2023-01-13T01:16:43.040Z,99734.28
2023-01-13T01:17:44.832Z,99743.16
2023-01-13T01:18:46.884Z,99744.59
2023-01-13T01:19:51.222Z,99743.75
2023-01-13T01:20:52.803Z,99746.31
2023-01-13T01:21:55.733Z,99745.72
2023-01-13T01:22:59.811Z,99754.69
2023-01-13T01:24:04.419Z,99748.28
2023-01-13T01:25:09.210Z,99745.53
2023-01-13T01:26:30.936Z,99750.59
2023-01-13T01:28:55.105Z,99741.91
2023-01-13T01:31:13.711Z,99737.34
2023-01-13T01:32:17.644Z,99729.78
2023-01-13T01:33:20.141Z,99739.59
2023-01-13T01:34:25.659Z,99725.09
2023-01-13T01:35:35.190Z,99730.69
2023-01-13T01:36:45.706Z,99731.81
2023-01-13T01:37:53.153Z,99718.41
2023-01-13T01:38:57.602Z,99722.88
2023-01-13T01:39:59.195Z,99727.66
2023-01-13T01:41:00.790Z,99727.94
2023-01-13T01:42:24.009Z,99717.88
2023-01-13T01:44:07.293Z,99715.03
2023-01-13T01:46:36.160Z,99711.03
2023-01-13T01:47:37.776Z,99713.59
2023-01-13T01:48:40.544Z,99704.31
2023-01-13T01:49:43.645Z,99706.22
2023-01-13T01:50:45.245Z,99705.94
2023-01-13T01:51:48.921Z,99704.56
2023-01-13T01:52:52.518Z,99705.41
2023-01-13T01:53:54.941Z,99699.56
2023-01-13T01:55:09.312Z,99703.78
2023-01-13T01:56:11.543Z,99712.19
2023-01-13T01:57:16.286Z,99696.53
2023-01-13T01:58:30.856Z,99711.03
2023-01-13T01:59:41.437Z,99699.31
2023-01-13T02:00:44.358Z,99698.72
2023-01-13T02:01:46.375Z,99702.06
2023-01-13T02:02:50.686Z,99705.41
2023-01-13T02:03:57.966Z,99701.22
2023-01-13T02:05:00.210Z,99702.06
2023-01-13T02:06:04.902Z,99696.47
2023-01-13T02:07:08.348Z,99695.88
2023-01-13T02:08:10.879Z,99698.13
2023-01-13T02:09:12.952Z,99702.59
2023-01-13T02:10:17.994Z,99711.50
2023-01-13T02:11:46.889Z,99700.91
2023-01-13T02:12:49.971Z,99698.66
2023-01-13T02:13:52.359Z,99707.59
2023-01-13T02:14:53.876Z,99681.03
2023-01-13T02:16:14.501Z,99700.09
2023-01-13T02:17:22.110Z,99687.22
2023-01-13T02:18:43.942Z,99691.97
2023-01-13T02:20:00.963Z,99685.28
2023-01-13T02:21:06.157Z,99692.91
2023-01-13T02:22:07.970Z,99691.47
2023-01-13T02:23:46.791Z,99703.72
2023-01-13T02:25:08.448Z,99691.47
2023-01-13T02:26:28.318Z,99690.59
2023-01-13T02:27:48.781Z,99685.81
2023-01-13T02:29:15.561Z,99677.44
2023-01-13T02:30:47.973Z,99684.47
2023-01-13T02:31:49.636Z,99685.03
2023-01-13T02:33:06.385Z,99688.09
2023-01-13T02:34:28.237Z,99693.69
2023-01-13T02:35:47.099Z,99681.88
2023-01-13T02:36:56.632Z,99689.13
2023-01-13T02:37:59.962Z,99690.47
2023-01-13T02:39:07.384Z,99686.84
2023-01-13T02:40:20.984Z,99692.19
2023-01-13T02:41:46.325Z,99684.63
2023-01-13T02:44:55.809Z,99667.78
2023-01-13T02:45:59.629Z,99670.66
2023-01-13T02:47:03.707Z,99668.97
2023-01-13T02:49:48.650Z,99664.47
2023-01-13T02:50:53.054Z,99660.59
2023-01-13T02:53:40.738Z,99656.94
2023-01-13T02:54:44.955Z,99662.53
2023-01-13T02:55:47.720Z,99656.94
2023-01-13T02:56:49.899Z,99665.69
2023-01-13T02:59:12.599Z,99650.00
2023-01-13T03:00:14.473Z,99657.00
2023-01-13T03:01:16.824Z,99657.00
2023-01-13T03:02:20.490Z,99654.75
2023-01-13T03:03:22.362Z,99655.81
2023-01-13T03:04:42.877Z,99655.81
2023-01-13T03:05:45.368Z,99648.25
2023-01-13T03:07:05.512Z,99647.19
2023-01-13T03:08:09.849Z,99660.94
2023-01-13T03:09:12.715Z,99655.03
2023-01-13T03:10:40.730Z,99656.19
2023-01-13T03:12:15.763Z,99628.00
2023-01-13T03:13:35.516Z,99643.31
2023-01-13T03:14:42.719Z,99668.50
2023-01-13T03:15:55.479Z,99632.22
2023-01-13T03:17:05.450Z,99636.44
2023-01-13T03:18:31.561Z,99648.72
2023-01-13T03:19:44.694Z,99647.91
2023-01-13T03:20:53.961Z,99650.69
2023-01-13T03:21:57.175Z,99645.06
2023-01-13T03:23:21.981Z,99657.88
2023-01-13T03:24:26.678Z,99645.91
2023-01-13T03:25:30.542Z,99646.75
2023-01-13T03:26:44.633Z,99639.81
2023-01-13T03:27:51.166Z,99642.56
2023-01-13T03:28:56.081Z,99643.41
2023-01-13T03:30:05.239Z,99645.06
2023-01-13T03:31:08.460Z,99631.94
2023-01-13T03:32:14.680Z,99636.38
2023-01-13T03:33:18.250Z,99632.72
2023-01-13T03:34:21.371Z,99636.03
2023-01-13T03:35:30.908Z,99620.16
2023-01-13T03:36:34.929Z,99631.63
2023-01-13T03:37:39.293Z,99637.72
2023-01-13T03:38:43.274Z,99636.03
2023-01-13T03:39:48.733Z,99638.88
2023-01-13T03:41:15.104Z,99614.25
2023-01-13T03:42:22.094Z,99628.44
2023-01-13T03:43:50.425Z,99627.84
2023-01-13T03:44:56.541Z,99619.22
2023-01-13T03:46:03.243Z,99636.31
2023-01-13T03:47:11.779Z,99622.03
2023-01-13T03:48:15.857Z,99615.38
2023-01-13T03:49:19.337Z,99636.53
2023-01-13T03:50:22.579Z,99627.63
2023-01-13T03:51:24.842Z,99620.91
2023-01-13T03:52:30.778Z,99636.00
2023-01-13T03:53:40.553Z,99618.69
2023-01-13T03:54:45.025Z,99615.00
2023-01-13T03:55:53.705Z,99617.50
2023-01-13T03:56:56.515Z,99630.34
2023-01-13T03:58:11.687Z,99620.56
2023-01-13T03:59:14.887Z,99613.09
2023-01-13T04:00:19.247Z,99619.53
2023-01-13T04:01:23.187Z,99619.75
2023-01-13T04:02:29.028Z,99620.31
2023-01-13T04:03:34.046Z,99606.91
2023-01-13T04:04:38.425Z,99615.06
2023-01-13T04:05:41.880Z,99618.94
2023-01-13T04:06:50.023Z,99613.03
2023-01-13T04:07:58.013Z,99598.16
2023-01-13T04:09:07.228Z,99607.16
2023-01-13T04:10:09.369Z,99613.94
2023-01-13T04:11:12.411Z,99611.16
2023-01-13T04:12:23.832Z,99611.53
2023-01-13T04:13:31.541Z,99621.81
2023-01-13T04:14:33.385Z,99613.50
2023-01-13T04:15:36.742Z,99628.09
2023-01-13T04:16:38.923Z,99608.22
2023-01-13T04:17:42.398Z,99602.31
2023-01-13T04:18:46.596Z,99598.69
2023-01-13T04:19:49.681Z,99602.25
2023-01-13T04:20:52.362Z,99601.38
2023-01-13T04:21:53.935Z,99610.34
2023-01-13T04:22:58.587Z,99624.91
2023-01-13T04:24:01.184Z,99604.50
2023-01-13T04:25:05.161Z,99606.47
2023-01-13T04:26:07.982Z,99609.28
2023-01-13T04:27:09.929Z,99613.19
2023-01-13T04:28:11.935Z,99609.59
2023-01-13T04:29:15.626Z,99622.19
2023-01-13T04:30:17.742Z,99611.38
2023-01-13T04:31:21.793Z,99608.03
2023-01-13T04:32:32.276Z,99605.28
2023-01-13T04:33:35.257Z,99610.06
2023-01-13T04:34:38.369Z,99604.19
2023-01-13T04:35:40.405Z,99608.44
2023-01-13T04:36:43.587Z,99603.72
2023-01-13T04:37:45.538Z,99616.28
2023-01-13T04:38:47.295Z,99614.06
2023-01-13T04:39:49.433Z,99602.59
2023-01-13T04:40:51.257Z,99594.75
2023-01-13T04:41:59.389Z,99597.78
2023-01-13T04:43:02.615Z,99603.84
2023-01-13T04:44:04.982Z,99598.53
2023-01-13T04:46:26.785Z,99592.41
2023-01-13T04:47:39.008Z,99593.78
2023-01-13T04:48:42.975Z,99595.97
2023-01-13T04:49:44.820Z,99595.91
2023-01-13T04:50:47.771Z,99597.56
2023-01-13T04:51:49.849Z,99593.41
2023-01-13T04:52:51.724Z,99595.38
2023-01-13T04:53:53.919Z,99587.22
2023-01-13T04:54:59.961Z,99588.03
2023-01-13T04:56:02.169Z,99598.91
2023-01-13T04:57:08.413Z,99587.44
2023-01-13T04:58:10.731Z,99592.25
2023-01-13T04:59:16.959Z,99576.31
2023-01-13T05:00:22.140Z,99581.25
2023-01-13T05:01:24.701Z,99585.16
2023-01-13T05:02:28.041Z,99594.03
2023-01-13T05:03:30.074Z,99595.72
2023-01-13T05:04:32.233Z,99580.09
2023-01-13T05:05:34.534Z,99588.72
2023-01-13T05:06:36.814Z,99591.25
2023-01-13T05:07:38.857Z,99587.66
2023-01-13T05:08:40.935Z,99589.63
2023-01-13T05:09:43.076Z,99581.81
2023-01-13T05:10:45.304Z,99575.94
2023-01-13T05:12:05.793Z,99575.63
2023-01-13T05:13:27.483Z,99583.94
2023-01-13T05:14:47.749Z,99593.16
2023-01-13T05:16:11.356Z,99563.53
2023-01-13T05:17:15.011Z,99569.97
2023-01-13T05:18:17.065Z,99561.03
2023-01-13T05:19:20.446Z,99559.44
2023-01-13T05:20:23.362Z,99553.25
2023-01-13T05:21:43.505Z,99550.75
2023-01-13T05:23:07.193Z,99551.59
2023-01-13T05:24:27.920Z,99563.41
2023-01-13T05:25:30.326Z,99564.03
2023-01-13T05:26:31.975Z,99561.81
2023-01-13T05:27:36.250Z,99564.00
2023-01-13T05:28:38.993Z,99567.56
2023-01-13T05:29:40.869Z,99564.47
2023-01-13T05:30:46.221Z,99573.97
2023-01-13T05:31:48.315Z,99568.69
2023-01-13T05:32:51.336Z,99576.84
2023-01-13T05:33:53.920Z,99567.56
2023-01-13T05:34:56.320Z,99565.03
2023-01-13T05:36:01.567Z,99563.94
2023-01-13T05:37:06.544Z,99585.72
2023-01-13T05:38:11.225Z,99569.44
2023-01-13T05:39:13.219Z,99581.22
2023-01-13T05:40:34.437Z,99592.63
2023-01-13T05:41:56.020Z,99581.72
2023-01-13T05:44:38.847Z,99576.38
2023-01-13T05:45:43.203Z,99606.84
2023-01-13T05:46:44.957Z,99599.59
2023-01-13T05:47:47.829Z,99600.13
2023-01-13T05:48:51.396Z,99605.13
2023-01-13T05:49:54.567Z,99607.03
2023-01-13T05:50:57.151Z,99624.59
2023-01-13T05:51:59.387Z,99614.47
2023-01-13T05:53:04.788Z,99623.97
2023-01-13T05:54:11.272Z,99621.09
2023-01-13T05:55:13.593Z,99632.75
2023-01-13T05:56:19.277Z,99629.94
2023-01-13T05:57:21.062Z,99635.44
2023-01-13T05:58:23.764Z,99641.59
2023-01-13T05:59:26.503Z,99631.53
2023-01-13T06:00:29.958Z,99631.78
2023-01-13T06:01:31.691Z,99639.03
2023-01-13T06:02:35.370Z,99640.41
2023-01-13T06:04:54.069Z,99644.28
2023-01-13T06:05:59.775Z,99651.53
2023-01-13T06:07:01.834Z,99652.94
2023-01-13T06:08:04.553Z,99663.81
2023-01-13T06:09:06.172Z,99666.56
2023-01-13T06:10:08.345Z,99673.22
2023-01-13T06:11:10.288Z,99679.91
2023-01-13T06:12:13.158Z,99687.16
2023-01-13T06:13:15.348Z,99691.09
2023-01-13T06:14:17.237Z,99687.16
2023-01-13T06:15:18.858Z,99688.22
2023-01-13T06:16:21.150Z,99678.69
2023-01-13T06:17:22.932Z,99682.63
2023-01-13T06:18:25.427Z,99683.16
2023-01-13T06:19:27.742Z,99680.34
2023-01-13T06:20:29.426Z,99677.25
2023-01-13T06:21:33.212Z,99677.25
2023-01-13T06:22:36.705Z,99670.28
2023-01-13T06:23:38.891Z,99664.50
2023-01-13T06:24:41.049Z,99681.09
2023-01-13T06:26:00.752Z,99674.72
2023-01-13T06:27:02.801Z,99672.53
2023-01-13T06:28:04.923Z,99682.59
2023-01-13T06:29:06.736Z,99682.84
2023-01-13T06:30:08.852Z,99692.16
2023-01-13T06:31:11.206Z,99686.03
2023-01-13T06:32:14.791Z,99688.00
2023-01-13T06:33:18.670Z,99688.00
2023-01-13T06:34:20.436Z,99671.19
2023-01-13T06:35:25.391Z,99687.16
2023-01-13T06:36:30.484Z,99690.25
2023-01-13T06:37:32.632Z,99690.84
2023-01-13T06:38:35.437Z,99691.97
2023-01-13T06:39:37.767Z,99700.97
2023-01-13T06:40:39.621Z,99692.56
2023-01-13T06:42:00.262Z,99689.16
2023-01-13T06:43:17.732Z,99665.56
2023-01-13T06:44:19.771Z,99675.34
2023-01-13T06:45:21.913Z,99663.06
2023-01-13T06:46:24.011Z,99662.00
2023-01-13T06:47:25.675Z,99661.09
2023-01-13T06:48:33.435Z,99666.41
2023-01-13T06:49:35.864Z,99668.06
2023-01-13T06:50:38.121Z,99667.84
2023-01-13T06:51:40.215Z,99677.59
2023-01-13T06:52:42.296Z,99683.19
2023-01-13T06:53:44.607Z,99678.44
2023-01-13T06:54:47.996Z,99664.75
2023-01-13T06:55:52.322Z,99655.28
2023-01-13T06:56:54.173Z,99655.63
2023-01-13T06:57:56.800Z,99665.44
2023-01-13T06:58:58.661Z,99665.53
2023-01-13T07:00:02.622Z,99671.72
2023-01-13T07:01:04.569Z,99671.41
2023-01-13T07:02:07.596Z,99666.19
2023-01-13T07:03:11.370Z,99668.44
2023-01-13T07:04:14.528Z,99663.22
2023-01-13T07:05:16.466Z,99666.38
2023-01-13T07:06:18.257Z,99671.38
2023-01-13T07:07:20.983Z,99669.94
2023-01-13T07:08:22.907Z,99658.75
2023-01-13T07:09:24.492Z,99669.94
2023-01-13T07:10:26.767Z,99678.88
2023-01-13T07:11:28.527Z,99672.19
2023-01-13T07:12:31.051Z,99680.03
2023-01-13T07:13:53.614Z,99682.00
2023-01-13T07:15:14.465Z,99692.63
2023-01-13T07:16:16.222Z,99696.59
2023-01-13T07:17:25.602Z,99691.06
2023-01-13T07:18:30.261Z,99682.66
2023-01-13T07:19:32.360Z,99678.75
2023-01-13T07:20:34.683Z,99674.28
2023-01-13T07:21:37.512Z,99682.09
2023-01-13T07:22:39.695Z,99679.59
2023-01-13T07:23:41.573Z,99672.09
2023-01-13T07:24:43.509Z,99673.81
2023-01-13T07:25:45.135Z,99675.47
2023-01-13T07:26:47.861Z,99679.66
2023-01-13T07:27:49.513Z,99690.78
2023-01-13T07:28:51.507Z,99684.34
2023-01-13T07:29:56.691Z,99687.44
2023-01-13T07:30:58.797Z,99688.88
2023-01-13T07:32:01.516Z,99683.28
2023-01-13T07:33:03.677Z,99685.81
2023-01-13T07:34:07.663Z,99686.06
2023-01-13T07:35:09.510Z,99679.97
2023-01-13T07:36:12.180Z,99671.31
2023-01-13T07:37:13.857Z,99667.16
2023-01-13T07:38:15.606Z,99676.69
2023-01-13T07:39:18.147Z,99675.56
2023-01-13T07:40:20.523Z,99690.09
2023-01-13T07:41:40.863Z,99697.34
2023-01-13T07:43:01.637Z,99700.69
2023-01-13T07:44:06.767Z,99704.06
2023-01-13T07:45:12.096Z,99699.63
2023-01-13T07:46:21.212Z,99702.44
2023-01-13T07:47:24.204Z,99700.25
2023-01-13T07:48:27.376Z,99698.28
2023-01-13T07:49:29.047Z,99684.84
2023-01-13T07:50:33.310Z,99687.94
2023-01-13T07:51:37.529Z,99700.25
2023-01-13T07:52:39.668Z,99701.06
2023-01-13T07:53:41.307Z,99710.00
2023-01-13T07:54:43.026Z,99699.69
2023-01-13T07:55:45.865Z,99699.94
2023-01-13T07:56:47.935Z,99703.59
2023-01-13T07:57:51.295Z,99713.34
2023-01-13T07:58:53.887Z,99717.25
2023-01-13T07:59:57.406Z,99714.41
2023-01-13T08:00:59.336Z,99718.91
2023-01-13T08:02:03.252Z,99729.50
2023-01-13T08:03:06.222Z,99728.94
2023-01-13T08:04:08.095Z,99720.25
2023-01-13T08:05:10.664Z,99730.34
2023-01-13T08:06:13.069Z,99733.97
2023-01-13T08:07:15.388Z,99733.97
2023-01-13T08:08:17.178Z,99740.38
2023-01-13T08:09:19.527Z,99740.69
2023-01-13T08:10:21.676Z,99744.31
2023-01-13T08:11:23.815Z,99744.63
2023-01-13T08:12:51.845Z,99748.56
2023-01-13T08:13:58.291Z,99744.34
2023-01-13T08:15:00.103Z,99745.19
2023-01-13T08:16:02.751Z,99752.44
2023-01-13T08:17:05.797Z,99752.22
2023-01-13T08:18:07.405Z,99760.91
2023-01-13T08:19:09.025Z,99760.34
2023-01-13T08:20:12.688Z,99758.94
2023-01-13T08:21:14.756Z,99762.84
2023-01-13T08:22:16.554Z,99774.03
2023-01-13T08:23:19.184Z,99785.19
2023-01-13T08:24:21.346Z,99777.66
2023-01-13T08:25:23.661Z,99794.09
2023-01-13T08:26:25.521Z,99793.25
2023-01-13T08:27:27.652Z,99794.34
2023-01-13T08:28:29.681Z,99807.47
2023-01-13T08:29:31.747Z,99804.38
2023-01-13T08:30:34.728Z,99800.75
2023-01-13T08:31:36.629Z,99802.97
2023-01-13T08:32:39.049Z,99815.81
2023-01-13T08:33:40.793Z,99813.56
2023-01-13T08:34:42.402Z,99814.69
2023-01-13T08:35:46.195Z,99809.94
2023-01-13T08:36:50.055Z,99819.16
2023-01-13T08:37:51.815Z,99815.25
2023-01-13T08:38:53.833Z,99817.19
2023-01-13T08:39:56.150Z,99816.38
2023-01-13T08:40:58.905Z,99816.38
2023-01-13T08:42:01.113Z,99811.91
2023-01-13T08:43:03.340Z,99816.91
2023-01-13T08:44:05.270Z,99813.53
2023-01-13T08:45:07.212Z,99807.13
2023-01-13T08:46:09.080Z,99814.94
2023-01-13T08:47:11.302Z,99819.16
2023-01-13T08:48:13.526Z,99817.50
2023-01-13T08:49:16.816Z,99810.22
2023-01-13T08:50:19.842Z,99816.09
2023-01-13T08:51:22.857Z,99813.03
2023-01-13T08:52:24.928Z,99826.13
2023-01-13T08:53:27.431Z,99831.72
2023-01-13T08:54:29.512Z,99824.75
2023-01-13T08:55:32.229Z,99823.91
2023-01-13T08:56:35.689Z,99814.66
2023-01-13T08:57:37.540Z,99820.00
2023-01-13T08:58:41.159Z,99827.78
2023-01-13T08:59:43.815Z,99827.75
2023-01-13T09:00:46.013Z,99831.41
2023-01-13T09:01:48.027Z,99825.25
2023-01-13T09:02:50.305Z,99824.66
2023-01-13T09:03:52.742Z,99833.94
2023-01-13T09:04:56.096Z,99832.50
2023-01-13T09:05:58.326Z,99836.13
2023-01-13T09:07:00.006Z,99836.97
2023-01-13T09:08:02.543Z,99839.19
2023-01-13T09:09:04.255Z,99833.63
2023-01-13T09:10:06.332Z,99836.97
2023-01-13T09:11:28.473Z,99836.69
2023-01-13T09:12:59.325Z,99838.59
2023-01-13T09:14:03.276Z,99835.28
2023-01-13T09:15:06.799Z,99844.19
2023-01-13T09:16:08.961Z,99842.81
2023-01-13T09:17:12.480Z,99843.06
2023-01-13T09:18:14.212Z,99838.84
2023-01-13T09:19:18.529Z,99838.56
2023-01-13T09:20:20.829Z,99835.69
2023-01-13T09:21:23.735Z,99837.34
2023-01-13T09:22:28.419Z,99838.69
2023-01-13T09:23:30.600Z,99841.63
2023-01-13T09:24:33.237Z,99842.56
2023-01-13T09:25:36.795Z,99846.56
2023-01-13T09:26:38.948Z,99857.78
2023-01-13T09:27:41.136Z,99855.88
2023-01-13T09:28:43.883Z,99859.06
2023-01-13T09:29:46.048Z,99859.94
2023-01-13T09:30:49.870Z,99863.75
2023-01-13T09:31:52.023Z,99867.66
2023-01-13T09:33:14.010Z,99866.00
2023-01-13T09:34:35.811Z,99862.38
2023-01-13T09:35:37.620Z,99865.34
2023-01-13T09:36:40.153Z,99869.34
2023-01-13T09:37:42.007Z,99866.56
2023-01-13T09:38:43.848Z,99867.09
2023-01-13T09:39:45.913Z,99864.28
2023-01-13T09:40:47.973Z,99863.56
2023-01-13T09:42:08.893Z,99866.00
2023-01-13T09:43:38.991Z,99875.31
2023-01-13T09:44:46.074Z,99886.50
2023-01-13T09:46:27.422Z,99881.28
2023-01-13T09:47:31.655Z,99882.53
2023-01-13T09:48:51.886Z,99883.44
2023-01-13T09:49:54.088Z,99905.06
2023-01-13T09:51:17.613Z,99899.84
2023-01-13T09:52:26.594Z,99899.97
2023-01-13T09:53:29.443Z,99896.69
2023-01-13T09:54:35.598Z,99894.19
2023-01-13T09:55:37.319Z,99893.22
2023-01-13T09:56:39.551Z,99905.63
2023-01-13T09:57:42.012Z,99900.19
2023-01-13T09:58:45.073Z,99898.00
2023-01-13T09:59:47.376Z,99902.88
2023-01-13T10:01:07.777Z,99902.69
2023-01-13T10:02:28.316Z,99885.88
2023-01-13T10:03:30.788Z,99890.94
2023-01-13T10:04:33.295Z,99892.38
2023-01-13T10:05:36.701Z,99894.28
2023-01-13T10:06:42.626Z,99894.06
2023-01-13T10:08:14.435Z,99898.00
2023-01-13T10:09:21.566Z,99901.94
2023-01-13T10:10:35.351Z,99905.88
2023-01-13T10:11:57.014Z,99906.22
2023-01-13T10:13:20.307Z,99908.00
2023-01-13T10:14:35.205Z,99902.19
2023-01-13T10:15:37.294Z,99907.03
2023-01-13T10:16:48.076Z,99907.56
2023-01-13T10:18:19.449Z,99894.69
2023-01-13T10:19:28.953Z,99903.16
2023-01-13T10:20:50.343Z,99908.50
2023-01-13T10:21:55.755Z,99904.31
2023-01-13T10:23:16.207Z,99897.38
2023-01-13T10:24:25.338Z,99901.59
2023-01-13T10:25:28.161Z,99896.28
2023-01-13T10:26:38.741Z,99896.53
2023-01-13T10:27:41.123Z,99905.22
2023-01-13T10:28:42.950Z,99895.41
2023-01-13T10:29:46.320Z,99893.19
2023-01-13T10:30:48.623Z,99891.81
2023-01-13T10:31:53.102Z,99887.66
2023-01-13T10:32:54.693Z,99897.81
2023-01-13T10:33:59.846Z,99900.66
2023-01-13T10:35:02.517Z,99900.06
2023-01-13T10:36:12.919Z,99895.53
2023-01-13T10:37:26.624Z,99896.97
2023-01-13T10:38:40.290Z,99892.63
2023-01-13T10:39:43.034Z,99882.84
2023-01-13T10:41:02.264Z,99881.44
2023-01-13T10:42:07.507Z,99884.22
2023-01-13T10:43:09.261Z,99891.81
2023-01-13T10:44:15.623Z,99883.88
2023-01-13T10:45:24.424Z,99879.69
2023-01-13T10:46:26.245Z,99878.41
2023-01-13T10:47:29.224Z,99879.66
2023-01-13T10:48:38.635Z,99878.59
2023-01-13T10:49:40.997Z,99884.75
2023-01-13T10:50:43.288Z,99879.22
2023-01-13T10:51:45.170Z,99877.22
2023-01-13T10:53:00.168Z,99884.72
2023-01-13T10:54:02.943Z,99882.69
2023-01-13T10:55:08.619Z,99877.63
2023-01-13T10:56:11.132Z,99880.00
2023-01-13T10:57:19.041Z,99880.88
2023-01-13T10:58:20.952Z,99879.88
2023-01-13T10:59:23.722Z,99872.22
2023-01-13T11:00:29.511Z,99879.31
2023-01-13T11:01:31.620Z,99873.91
2023-01-13T11:02:34.185Z,99884.41
2023-01-13T11:03:40.672Z,99878.91
2023-01-13T11:04:54.664Z,99877.22
2023-01-13T11:05:57.150Z,99877.19
2023-01-13T11:06:59.111Z,99881.84
2023-01-13T11:08:01.160Z,99884.41
2023-01-13T11:09:03.686Z,99888.50
2023-01-13T11:10:14.386Z,99883.25
2023-01-13T11:11:28.182Z,99889.16
2023-01-13T11:12:33.644Z,99891.91
2023-01-13T11:13:36.216Z,99891.97
2023-01-13T11:14:41.764Z,99891.53
2023-01-13T11:15:47.487Z,99890.56
2023-01-13T11:16:53.712Z,99883.56
2023-01-13T11:18:05.179Z,99888.81
2023-01-13T11:19:14.668Z,99881.66
2023-01-13T11:20:23.745Z,99880.66
2023-01-13T11:21:28.374Z,99878.06
2023-01-13T11:22:32.762Z,99886.13
2023-01-13T11:23:36.033Z,99884.38
2023-01-13T11:24:40.847Z,99892.56
2023-01-13T11:25:44.224Z,99891.97
2023-01-13T11:27:06.490Z,99887.38
2023-01-13T11:28:17.187Z,99894.28
2023-01-13T11:29:21.197Z,99899.84
2023-01-13T11:30:34.047Z,99903.28
2023-01-13T11:31:40.305Z,99896.19
2023-01-13T11:32:57.898Z,99895.47
2023-01-13T11:34:07.366Z,99901.94
2023-01-13T11:35:16.188Z,99907.88
2023-01-13T11:36:20.465Z,99910.72
2023-01-13T11:37:26.880Z,99917.91
2023-01-13T11:38:33.774Z,99917.78
2023-01-13T11:39:47.053Z,99910.66
2023-01-13T11:40:49.008Z,99920.88
2023-01-13T11:42:22.597Z,99918.53
2023-01-13T11:43:24.161Z,99909.69
2023-01-13T11:44:29.119Z,99905.59
2023-01-13T11:45:34.022Z,99912.66
2023-01-13T11:46:36.496Z,99904.56
2023-01-13T11:47:38.243Z,99912.72
2023-01-13T11:48:43.174Z,99921.47
2023-01-13T11:49:48.760Z,99918.66
2023-01-13T11:51:08.821Z,99913.03
2023-01-13T11:52:18.516Z,99928.75
2023-01-13T11:53:20.016Z,99919.50
2023-01-13T11:54:26.120Z,99920.56
2023-01-13T11:55:45.621Z,99906.22
2023-01-13T11:57:05.852Z,99909.09
2023-01-13T11:58:25.809Z,99914.66
2023-01-13T11:59:40.118Z,99909.34
2023-01-13T12:01:05.622Z,99933.25
2023-01-13T12:02:26.062Z,99924.22
2023-01-13T12:03:31.400Z,99929.78
2023-01-13T12:04:51.229Z,99926.72
2023-01-13T12:05:59.909Z,99924.84
2023-01-13T12:07:13.041Z,99918.94
2023-01-13T12:08:14.895Z,99941.81
2023-01-13T12:09:22.339Z,99918.66
2023-01-13T12:10:43.219Z,99923.75
2023-01-13T12:12:12.241Z,99908.84
2023-01-13T12:13:14.195Z,99912.56
2023-01-13T12:14:26.645Z,99914.25
2023-01-13T12:15:32.126Z,99911.59
2023-01-13T12:16:33.853Z,99913.88
2023-01-13T12:17:48.273Z,99904.31
2023-01-13T12:18:49.845Z,99901.44
2023-01-13T12:19:51.615Z,99909.34
2023-01-13T12:21:02.278Z,99897.50
2023-01-13T12:22:14.159Z,99904.75
2023-01-13T12:23:40.614Z,99908.00
2023-01-13T12:24:49.894Z,99915.50
2023-01-13T12:25:53.113Z,99915.16
2023-01-13T12:26:55.458Z,99919.88
2023-01-13T12:27:59.739Z,99912.75
2023-01-13T12:29:15.353Z,99911.53
2023-01-13T12:30:24.261Z,99899.97
2023-01-13T12:31:26.335Z,99903.25
2023-01-13T12:32:36.157Z,99900.06
2023-01-13T12:33:53.327Z,99899.69
2023-01-13T12:34:55.279Z,99904.34
2023-01-13T12:36:01.703Z,99904.59
2023-01-13T12:37:05.989Z,99896.06
2023-01-13T12:38:12.606Z,99896.28
2023-01-13T12:39:14.491Z,99893.41
2023-01-13T12:40:22.135Z,99888.53
2023-01-13T12:42:05.088Z,99874.66
2023-01-13T12:43:26.382Z,99877.16
2023-01-13T12:44:29.529Z,99871.47
2023-01-13T12:45:32.378Z,99869.72
2023-01-13T12:46:34.575Z,99871.38
2023-01-13T12:47:40.537Z,99870.53
2023-01-13T12:48:57.900Z,99867.66
2023-01-13T12:50:18.231Z,99866.84
2023-01-13T12:51:22.824Z,99864.31
2023-01-13T12:52:25.771Z,99875.53
2023-01-13T12:53:34.049Z,99863.47
2023-01-13T12:54:44.559Z,99862.44
2023-01-13T12:55:48.856Z,99864.72
2023-01-13T12:56:50.910Z,99851.81
2023-01-13T12:58:00.243Z,99874.72
2023-01-13T12:59:17.328Z,99865.16
2023-01-13T13:00:20.244Z,99862.38
2023-01-13T13:01:22.652Z,99858.94
2023-01-13T13:02:25.201Z,99856.13
2023-01-13T13:03:28.392Z,99852.16
2023-01-13T13:04:42.224Z,99851.88
2023-01-13T13:05:45.143Z,99856.34
2023-01-13T13:06:53.933Z,99855.19
2023-01-13T13:08:05.274Z,99857.69
2023-01-13T13:09:22.083Z,99871.75
2023-01-13T13:10:29.310Z,99867.25
2023-01-13T13:11:58.340Z,99859.97
2023-01-13T13:13:19.199Z,99873.28
2023-01-13T13:14:39.496Z,99876.41
2023-01-13T13:15:41.235Z,99884.06
2023-01-13T13:16:54.046Z,99881.66